createdAt,value
2022-11-05T00:00:17.997Z,22.48
2022-11-05T00:03:08.926Z,24.30
2022-11-05T00:06:00.505Z,23.42
2022-11-05T00:08:50.947Z,22.17
2022-11-05T00:11:45.926Z,23.30
2022-11-05T00:14:45.111Z,25.30
2022-11-05T00:17:18.536Z,22.58
2022-11-05T00:19:51.809Z,26.13
2022-11-05T00:22:42.976Z,23.80
2022-11-05T00:25:17.860Z,25.75
2022-11-05T00:27:54.684Z,23.52
2022-11-05T00:30:28.166Z,22.05
2022-11-05T00:33:03.426Z,21.88
2022-11-05T00:35:36.650Z,22.25
2022-11-05T00:38:10.310Z,21.90
2022-11-05T00:40:43.581Z,20.92
2022-11-05T00:43:35.481Z,21.48
2022-11-05T00:46:08.776Z,22.33
2022-11-05T00:49:00.083Z,23.80
2022-11-05T00:51:33.376Z,20.50
2022-11-05T00:54:06.871Z,21.55
2022-11-05T00:56:40.214Z,21.85
2022-11-05T00:59:15.184Z,19.38
2022-11-05T01:01:48.467Z,23.27
2022-11-05T01:04:22.156Z,21.98
2022-11-05T01:06:56.471Z,20.75
2022-11-05T01:09:30.086Z,19.05
2022-11-05T01:12:03.329Z,19.15
2022-11-05T01:14:38.296Z,18.20
2022-11-05T01:17:11.519Z,18.05
2022-11-05T01:19:45.006Z,19.42
2022-11-05T01:22:18.435Z,19.55
2022-11-05T01:24:51.851Z,17.27
2022-11-05T01:27:25.455Z,13.25
2022-11-05T01:30:00.133Z,15.70
2022-11-05T01:32:33.575Z,12.50
2022-11-05T01:35:07.946Z,13.20
2022-11-05T01:37:41.934Z,13.38
2022-11-05T01:40:16.891Z,15.25
2022-11-05T01:42:50.318Z,14.95
2022-11-05T01:45:26.660Z,14.85
2022-11-05T01:48:04.407Z,14.68
2022-11-05T01:50:43.508Z,13.68
2022-11-05T01:53:22.198Z,14.35
2022-11-05T01:56:02.101Z,14.88
2022-11-05T01:58:39.187Z,15.85
2022-11-05T02:01:14.382Z,13.77
2022-11-05T02:03:49.733Z,13.07
2022-11-05T02:06:23.311Z,13.73
2022-11-05T02:09:01.128Z,14.68
2022-11-05T02:11:35.029Z,12.95
2022-11-05T02:14:08.371Z,12.70
2022-11-05T02:16:49.271Z,14.23
2022-11-05T02:20:03.111Z,12.77
2022-11-05T02:22:58.700Z,13.32
2022-11-05T02:26:00.436Z,12.93
2022-11-05T02:28:54.628Z,11.88
2022-11-05T02:31:37.309Z,12.43
2022-11-05T02:34:15.708Z,11.43
2022-11-05T02:36:54.835Z,11.95
2022-11-05T02:39:39.174Z,11.57
2022-11-05T02:42:19.099Z,12.82
2022-11-05T02:45:02.657Z,11.00
2022-11-05T02:47:43.273Z,10.35
2022-11-05T02:50:24.806Z,11.52
2022-11-05T02:53:02.816Z,9.95
2022-11-05T02:55:41.292Z,10.73
2022-11-05T02:58:14.903Z,10.15
2022-11-05T03:00:51.696Z,9.80
2022-11-05T03:03:35.481Z,9.73
2022-11-05T03:06:49.595Z,10.63
2022-11-05T03:09:36.768Z,10.45
2022-11-05T03:12:22.505Z,10.20
2022-11-05T03:15:03.796Z,10.68
2022-11-05T03:17:45.278Z,9.73
2022-11-05T03:20:24.929Z,10.85
2022-11-05T03:23:10.680Z,11.48
2022-11-05T03:25:47.870Z,9.23
2022-11-05T03:28:25.359Z,11.40
2022-11-05T03:31:00.131Z,10.95
2022-11-05T03:33:35.681Z,10.50
2022-11-05T03:36:17.473Z,10.90
2022-11-05T03:38:54.039Z,9.52
2022-11-05T03:41:29.018Z,11.23
2022-11-05T03:44:07.670Z,11.77
2022-11-05T03:46:45.314Z,10.25
2022-11-05T03:49:22.639Z,9.07
2022-11-05T03:52:02.757Z,10.45
2022-11-05T03:54:37.025Z,10.43
2022-11-05T03:57:14.271Z,9.55
2022-11-05T03:59:49.621Z,9.73
2022-11-05T04:02:26.005Z,9.95
2022-11-05T04:04:59.456Z,9.00
2022-11-05T04:07:51.565Z,10.55
2022-11-05T04:10:42.083Z,11.07
2022-11-05T04:13:27.867Z,10.45
2022-11-05T04:16:18.891Z,10.50
2022-11-05T04:18:52.136Z,10.70
2022-11-05T04:21:43.175Z,10.00
2022-11-05T04:24:17.776Z,9.63
2022-11-05T04:26:51.334Z,8.60
2022-11-05T04:29:42.017Z,10.23
2022-11-05T04:32:15.414Z,9.65
2022-11-05T04:34:48.677Z,9.35
2022-11-05T04:37:22.375Z,10.35
2022-11-05T04:39:57.147Z,9.68
2022-11-05T04:42:30.480Z,10.75
2022-11-05T04:45:03.968Z,10.18
2022-11-05T04:47:37.225Z,9.68
2022-11-05T04:50:12.374Z,10.23
2022-11-05T04:52:45.604Z,9.90
2022-11-05T04:55:20.803Z,12.27
2022-11-05T04:57:55.343Z,9.32
2022-11-05T05:00:28.656Z,9.43
2022-11-05T05:03:02.303Z,11.52
2022-11-05T05:05:35.570Z,10.73
2022-11-05T05:08:08.853Z,10.85
2022-11-05T05:10:43.640Z,10.38
2022-11-05T05:13:17.072Z,9.60
2022-11-05T05:15:50.292Z,9.88
2022-11-05T05:18:25.414Z,9.70
2022-11-05T05:21:16.464Z,8.82
2022-11-05T05:23:49.916Z,8.65
2022-11-05T05:26:24.906Z,9.65
2022-11-05T05:28:58.339Z,9.10
2022-11-05T05:31:31.933Z,9.98
2022-11-05T05:34:06.007Z,9.55
2022-11-05T05:36:39.288Z,9.20
2022-11-05T05:39:12.716Z,9.75
2022-11-05T05:41:47.332Z,9.50
2022-11-05T05:44:20.880Z,10.63
2022-11-05T05:46:55.740Z,9.15
2022-11-05T05:49:29.165Z,9.48
2022-11-05T05:52:02.575Z,9.43
2022-11-05T05:54:42.267Z,9.93
2022-11-05T05:57:17.472Z,11.50
2022-11-05T05:59:50.983Z,9.98
2022-11-05T06:02:24.404Z,10.38
2022-11-05T06:04:57.955Z,9.48
2022-11-05T06:07:36.043Z,10.57
2022-11-05T06:10:11.048Z,10.23
2022-11-05T06:12:45.839Z,12.10
2022-11-05T06:15:19.094Z,10.32
2022-11-05T06:17:52.516Z,10.75
2022-11-05T06:20:25.786Z,11.13
2022-11-05T06:22:59.465Z,10.40
2022-11-05T06:25:35.998Z,11.15
2022-11-05T06:28:14.796Z,11.07
2022-11-05T06:30:51.745Z,11.93
2022-11-05T06:33:25.264Z,11.07
2022-11-05T06:36:00.018Z,10.90
2022-11-05T06:38:35.062Z,11.05
2022-11-05T06:41:10.486Z,11.82
2022-11-05T06:43:45.512Z,11.35
2022-11-05T06:46:18.790Z,11.40
2022-11-05T06:48:52.087Z,11.88
2022-11-05T06:51:25.628Z,11.25
2022-11-05T06:53:59.079Z,13.70
2022-11-05T06:56:32.465Z,10.10
2022-11-05T06:59:08.580Z,11.65
2022-11-05T07:01:42.029Z,11.90
2022-11-05T07:04:15.475Z,12.90
2022-11-05T07:06:48.899Z,15.05
2022-11-05T07:09:22.211Z,15.05
2022-11-05T07:11:55.886Z,16.13
2022-11-05T07:14:30.696Z,16.42
2022-11-05T07:17:04.119Z,16.30
2022-11-05T07:19:37.409Z,11.65
2022-11-05T07:22:10.721Z,12.57
2022-11-05T07:24:47.191Z,12.60
2022-11-05T07:27:20.497Z,11.98
2022-11-05T07:29:55.234Z,10.98
2022-11-05T07:32:28.585Z,9.52
2022-11-05T07:35:03.405Z,10.63
2022-11-05T07:37:43.940Z,10.20
2022-11-05T07:40:19.306Z,10.93
2022-11-05T07:42:54.662Z,9.82
2022-11-05T07:45:31.355Z,8.88
2022-11-05T07:48:06.153Z,9.23
2022-11-05T07:50:39.825Z,8.27
2022-11-05T07:53:14.771Z,9.02
2022-11-05T07:55:48.249Z,10.93
2022-11-05T07:58:21.550Z,8.70
2022-11-05T08:00:57.840Z,9.98
2022-11-05T08:03:31.708Z,6.10
2022-11-05T08:06:05.438Z,3.33
2022-11-05T08:08:38.719Z,2.80
2022-11-05T08:11:13.074Z,2.65
2022-11-05T08:13:46.503Z,2.60
2022-11-05T08:16:21.130Z,2.05
2022-11-05T08:18:54.395Z,1.90
2022-11-05T08:21:27.675Z,1.70
2022-11-05T08:24:00.964Z,1.58
2022-11-05T08:26:34.418Z,1.02
2022-11-05T08:29:07.683Z,1.48
2022-11-05T08:31:42.470Z,1.42
2022-11-05T08:34:15.892Z,1.65
2022-11-05T08:36:49.115Z,1.50
2022-11-05T08:39:22.374Z,1.60
2022-11-05T08:41:55.736Z,1.55
2022-11-05T08:44:29.759Z,0.70
2022-11-05T08:47:04.450Z,0.95
2022-11-05T08:49:37.685Z,1.10
2022-11-05T08:52:10.955Z,0.93
2022-11-05T08:54:44.588Z,1.38
2022-11-05T08:57:17.824Z,1.23
2022-11-05T08:59:51.076Z,1.10
2022-11-05T09:02:25.836Z,1.05
2022-11-05T09:04:59.215Z,1.50
2022-11-05T09:07:35.465Z,1.40
2022-11-05T09:10:09.297Z,0.90
2022-11-05T09:12:42.769Z,1.30
2022-11-05T09:15:16.100Z,1.40
2022-11-05T09:17:50.782Z,1.75
2022-11-05T09:20:24.568Z,1.00
2022-11-05T09:22:57.909Z,1.80
2022-11-05T09:25:31.649Z,1.60
2022-11-05T09:28:13.420Z,0.90
2022-11-05T09:30:51.543Z,1.10
2022-11-05T09:33:28.096Z,1.70
2022-11-05T09:36:01.716Z,2.42
2022-11-05T09:38:35.978Z,2.78
2022-11-05T09:41:14.166Z,3.15
2022-11-05T09:43:52.052Z,1.70
2022-11-05T09:46:27.546Z,1.40
2022-11-05T09:49:06.311Z,3.38
2022-11-05T09:51:42.019Z,1.92
2022-11-05T09:54:16.694Z,2.38
2022-11-05T09:56:50.193Z,2.50
2022-11-05T09:59:27.201Z,2.65
2022-11-05T10:02:12.485Z,2.47
2022-11-05T10:04:51.546Z,3.50
2022-11-05T10:07:27.854Z,2.88
2022-11-05T10:10:04.384Z,2.72
2022-11-05T10:12:42.516Z,1.67
2022-11-05T10:15:22.041Z,2.55
2022-11-05T10:17:59.202Z,1.40
2022-11-05T10:20:36.981Z,2.33
2022-11-05T10:23:14.397Z,3.53
2022-11-05T10:25:51.597Z,3.83
2022-11-05T10:28:27.461Z,2.50
2022-11-05T10:31:02.600Z,1.88
2022-11-05T10:33:40.835Z,2.20
2022-11-05T10:36:22.013Z,2.60
2022-11-05T10:38:58.135Z,2.72
2022-11-05T10:41:50.544Z,3.17
2022-11-05T10:44:33.227Z,3.60
2022-11-05T10:47:25.726Z,3.08
2022-11-05T10:50:00.935Z,3.05
2022-11-05T10:52:37.567Z,2.78
2022-11-05T10:55:17.825Z,3.58
2022-11-05T10:57:51.465Z,17.08
2022-11-05T11:00:31.876Z,5.65
2022-11-05T11:03:06.806Z,2.80
2022-11-05T11:05:41.794Z,2.95
2022-11-05T11:08:25.488Z,2.65
2022-11-05T11:11:03.252Z,1.67
2022-11-05T11:13:51.473Z,1.92
2022-11-05T11:16:26.814Z,1.60
2022-11-05T11:19:03.105Z,1.70
2022-11-05T11:21:37.970Z,1.08
2022-11-05T11:24:23.279Z,1.30
2022-11-05T11:27:03.010Z,1.02
2022-11-05T11:29:42.879Z,1.63
2022-11-05T11:32:22.250Z,1.83
2022-11-05T11:34:58.373Z,1.80
2022-11-05T11:37:34.570Z,1.30
2022-11-05T11:40:17.095Z,1.45
2022-11-05T11:42:54.374Z,1.00
2022-11-05T11:45:32.790Z,1.13
2022-11-05T11:48:07.822Z,0.90
2022-11-05T11:50:43.653Z,1.20
2022-11-05T11:53:35.746Z,1.92
2022-11-05T11:56:18.112Z,1.00
2022-11-05T11:58:52.889Z,0.63
2022-11-05T12:02:00.324Z,0.90
2022-11-05T12:04:50.865Z,1.02
2022-11-05T12:07:35.225Z,1.30
2022-11-05T12:10:23.242Z,1.00
2022-11-05T12:13:15.908Z,0.88
2022-11-05T12:15:52.724Z,0.68
2022-11-05T12:18:36.393Z,1.20
2022-11-05T12:21:34.602Z,1.08
2022-11-05T12:24:46.986Z,1.23
2022-11-05T12:27:33.539Z,1.45
2022-11-05T12:30:14.933Z,1.20
2022-11-05T12:33:08.508Z,1.10
2022-11-05T12:35:57.457Z,5.18
2022-11-05T12:38:52.760Z,4.18
2022-11-05T12:41:30.960Z,3.13
2022-11-05T12:44:23.999Z,1.98
2022-11-05T12:49:51.419Z,1.90
2022-11-05T12:52:44.360Z,2.60
2022-11-05T12:57:55.612Z,1.30
2022-11-05T13:00:30.222Z,1.40
2022-11-05T13:03:25.023Z,0.88
2022-11-05T13:06:06.434Z,0.63
2022-11-05T13:08:45.795Z,0.82
2022-11-05T13:11:25.926Z,0.90
2022-11-05T13:14:09.669Z,1.55
2022-11-05T13:16:47.148Z,1.08
2022-11-05T13:19:25.776Z,1.60
2022-11-05T13:22:07.998Z,1.25
2022-11-05T13:24:48.190Z,0.70
2022-11-05T13:27:40.479Z,1.42
2022-11-05T13:30:17.846Z,1.48
2022-11-05T13:32:57.211Z,1.13
2022-11-05T13:35:37.151Z,1.15
2022-11-05T13:38:35.553Z,1.30
2022-11-05T13:41:22.663Z,0.95
2022-11-05T13:44:21.504Z,0.80
2022-11-05T13:47:14.115Z,1.80
2022-11-05T13:50:26.810Z,1.83
2022-11-05T13:53:23.482Z,1.50
2022-11-05T13:56:04.365Z,0.80
2022-11-05T13:59:02.591Z,1.15
2022-11-05T14:01:45.615Z,1.27
2022-11-05T14:04:32.177Z,1.70
2022-11-05T14:07:12.398Z,0.63
2022-11-05T14:09:48.593Z,0.93
2022-11-05T14:12:26.809Z,1.45
2022-11-05T14:15:08.779Z,1.52
2022-11-05T14:17:57.188Z,1.43
2022-11-05T14:21:00.359Z,1.50
2022-11-05T14:26:17.130Z,1.27
2022-11-05T14:29:10.237Z,1.77
2022-11-05T14:32:11.545Z,1.80
2022-11-05T14:34:48.621Z,1.85
2022-11-05T14:37:33.522Z,2.13
2022-11-05T14:40:36.291Z,2.25
2022-11-05T14:43:20.972Z,2.92
2022-11-05T14:45:57.374Z,2.08
2022-11-05T14:48:40.372Z,2.00
2022-11-05T14:51:29.608Z,2.20
2022-11-05T14:54:05.619Z,2.53
2022-11-05T14:56:51.783Z,2.80
2022-11-05T15:00:03.335Z,1.85
2022-11-05T15:02:39.078Z,1.52
2022-11-05T15:05:49.798Z,1.25
2022-11-05T15:08:32.154Z,1.92
2022-11-05T15:11:14.527Z,1.27
2022-11-05T15:13:58.720Z,1.50
2022-11-05T15:16:37.082Z,2.80
2022-11-05T15:19:18.931Z,2.40
2022-11-05T15:21:54.288Z,1.87
2022-11-05T15:24:29.252Z,1.92
2022-11-05T15:27:08.556Z,2.15
2022-11-05T15:29:43.036Z,3.53
2022-11-05T15:32:20.230Z,5.90
2022-11-05T15:34:55.374Z,5.32
2022-11-05T15:37:28.888Z,8.35
2022-11-05T15:40:02.281Z,16.15
2022-11-05T15:42:35.589Z,10.18
2022-11-05T15:45:21.067Z,5.40
2022-11-05T15:47:55.737Z,4.97
2022-11-05T15:50:29.359Z,11.00
2022-11-05T15:53:41.615Z,24.83
2022-11-05T15:56:12.852Z,15.82
2022-11-05T15:58:50.094Z,9.60
2022-11-05T16:01:28.057Z,11.55
2022-11-05T16:04:09.784Z,8.07
2022-11-05T16:06:46.075Z,5.93
2022-11-05T16:09:24.782Z,16.95
2022-11-05T16:12:14.095Z,10.88
2022-11-05T16:14:58.766Z,7.30
2022-11-05T16:17:34.684Z,7.88
2022-11-05T16:20:22.672Z,8.77
2022-11-05T16:22:58.354Z,10.82
2022-11-05T16:25:37.644Z,18.50
2022-11-05T16:28:23.206Z,23.45
2022-11-05T16:30:57.768Z,7.65
2022-11-05T16:33:35.344Z,6.25
2022-11-05T16:36:10.936Z,4.55
2022-11-05T16:38:44.430Z,4.25
2022-11-05T16:41:19.014Z,9.90
2022-11-05T16:43:54.155Z,8.00
2022-11-05T16:46:29.684Z,13.70
2022-11-05T16:49:02.954Z,15.27
2022-11-05T16:51:37.572Z,12.27
2022-11-05T16:54:11.197Z,10.88
2022-11-05T16:56:46.998Z,6.95
2022-11-05T16:59:20.296Z,26.40
2022-11-05T17:01:55.974Z,14.50
2022-11-05T17:04:29.512Z,29.13
2022-11-05T17:07:04.223Z,12.50
2022-11-05T17:09:37.572Z,9.13
2022-11-05T17:12:11.034Z,9.05
2022-11-05T17:14:44.405Z,7.95
2022-11-05T17:17:17.738Z,8.63
2022-11-05T17:19:51.014Z,16.35
2022-11-05T17:22:25.648Z,14.30
2022-11-05T17:24:58.932Z,7.10
2022-11-05T17:27:32.194Z,6.32
2022-11-05T17:30:06.451Z,10.45
2022-11-05T17:32:39.752Z,7.22
2022-11-05T17:35:13.742Z,6.50
2022-11-05T17:37:48.753Z,4.45
2022-11-05T17:40:23.865Z,3.67
2022-11-05T17:42:57.185Z,4.13
2022-11-05T17:45:30.990Z,3.33
2022-11-05T17:48:05.100Z,3.47
2022-11-05T17:50:41.794Z,3.00
2022-11-05T17:53:17.763Z,4.60
2022-11-05T17:55:51.054Z,3.83
2022-11-05T17:58:24.322Z,11.75
2022-11-05T18:00:57.686Z,8.18
2022-11-05T18:03:31.009Z,6.55
2022-11-05T18:06:05.263Z,9.88
2022-11-05T18:08:39.976Z,7.82
2022-11-05T18:11:13.787Z,8.13
2022-11-05T18:13:47.588Z,5.60
2022-11-05T18:16:20.900Z,7.30
2022-11-05T18:18:54.204Z,4.63
2022-11-05T18:21:27.564Z,3.17
2022-11-05T18:24:05.024Z,4.13
2022-11-05T18:26:38.291Z,8.02
2022-11-05T18:29:11.558Z,12.45
2022-11-05T18:31:44.869Z,6.38
2022-11-05T18:34:18.208Z,4.38
2022-11-05T18:36:56.145Z,7.18
2022-11-05T18:39:31.340Z,10.82
2022-11-05T18:42:04.776Z,9.48
2022-11-05T18:44:39.544Z,21.35
2022-11-05T18:47:13.289Z,8.75
2022-11-05T18:49:46.622Z,4.68
2022-11-05T18:52:19.914Z,7.97
2022-11-05T18:54:54.856Z,6.47
2022-11-05T18:57:28.377Z,7.95
2022-11-05T19:00:01.712Z,6.90
2022-11-05T19:02:35.044Z,3.65
2022-11-05T19:08:02.554Z,5.03
2022-11-05T19:10:40.279Z,5.40
2022-11-05T19:13:14.107Z,5.30
2022-11-05T19:15:47.396Z,4.63
2022-11-05T19:18:20.705Z,4.63
2022-11-05T19:20:54.010Z,4.35
2022-11-05T19:23:27.352Z,8.18
2022-11-05T19:26:05.577Z,8.50
2022-11-05T19:28:38.992Z,5.72
2022-11-05T19:31:15.205Z,4.93
2022-11-05T19:33:50.415Z,3.35
2022-11-05T19:36:25.347Z,3.55
2022-11-05T19:39:00.759Z,2.63
2022-11-05T19:41:35.586Z,4.53
2022-11-05T19:44:09.265Z,13.20
2022-11-05T19:46:43.983Z,9.60
2022-11-05T19:49:17.361Z,7.90
2022-11-05T19:51:51.068Z,16.15
2022-11-05T19:54:24.448Z,23.20
2022-11-05T19:56:59.805Z,18.35
2022-11-05T19:59:33.339Z,8.00
2022-11-05T20:02:09.525Z,5.95
2022-11-05T20:04:46.795Z,5.20
2022-11-05T20:07:20.448Z,6.82
2022-11-05T20:09:53.806Z,5.43
2022-11-05T20:12:28.485Z,5.75
2022-11-05T20:15:01.772Z,3.67
2022-11-05T20:17:35.063Z,4.72
2022-11-05T20:20:09.560Z,9.85
2022-11-05T20:22:43.482Z,8.73
2022-11-05T20:25:16.929Z,9.38
2022-11-05T20:27:51.663Z,10.18
2022-11-05T20:30:24.992Z,6.65
2022-11-05T20:32:58.999Z,7.45
2022-11-05T20:35:32.270Z,4.10
2022-11-05T20:38:05.664Z,10.45
2022-11-05T20:40:40.953Z,7.78
2022-11-05T20:43:15.599Z,7.00
2022-11-05T20:45:48.899Z,6.18
2022-11-05T20:48:22.183Z,9.93
2022-11-05T20:50:55.428Z,7.95
2022-11-05T20:53:28.750Z,5.35
2022-11-05T20:56:07.486Z,6.53
2022-11-05T20:58:42.558Z,5.40
2022-11-05T21:01:16.835Z,4.88
2022-11-05T21:03:50.240Z,4.00
2022-11-05T21:06:23.966Z,3.80
2022-11-05T21:08:57.325Z,5.00
2022-11-05T21:11:50.680Z,3.42
2022-11-05T21:14:25.326Z,4.40
2022-11-05T21:16:58.588Z,3.22
2022-11-05T21:19:32.794Z,4.53
2022-11-05T21:22:07.395Z,5.30
2022-11-05T21:24:40.639Z,4.80
2022-11-05T21:27:13.895Z,4.95
2022-11-05T21:29:48.495Z,4.13
2022-11-05T21:32:21.766Z,5.65
2022-11-05T21:34:55.007Z,5.25
2022-11-05T21:37:28.778Z,4.68
2022-11-05T21:40:02.184Z,8.55
2022-11-05T21:42:35.489Z,9.45
2022-11-05T21:45:11.173Z,11.85
2022-11-05T21:47:44.441Z,13.10
2022-11-05T21:50:21.754Z,10.52
2022-11-05T21:53:12.628Z,9.65
2022-11-05T21:56:08.651Z,9.20
2022-11-05T21:58:59.488Z,7.60
2022-11-05T22:01:37.033Z,3.92
2022-11-05T22:04:10.501Z,3.30
2022-11-05T22:06:43.838Z,3.90
2022-11-05T22:09:17.254Z,4.40
2022-11-05T22:11:50.679Z,3.63
2022-11-05T22:14:24.869Z,5.45
2022-11-05T22:16:59.796Z,7.35
2022-11-05T22:19:34.377Z,8.00
2022-11-05T22:22:08.249Z,8.07
2022-11-05T22:24:42.740Z,8.55
2022-11-05T22:27:18.868Z,7.60
2022-11-05T22:29:52.452Z,2.70
2022-11-05T22:32:27.281Z,5.43
2022-11-05T22:35:01.166Z,2.60
2022-11-05T22:37:34.592Z,3.10
2022-11-05T22:40:08.834Z,2.92
2022-11-05T22:42:42.158Z,4.20
2022-11-05T22:45:15.629Z,4.13
2022-11-05T22:47:50.255Z,5.25
2022-11-05T22:50:23.875Z,7.22
2022-11-05T22:52:57.117Z,7.53
2022-11-05T22:55:30.577Z,6.32
2022-11-05T22:58:03.821Z,7.05
2022-11-05T23:00:38.604Z,9.40
2022-11-05T23:03:13.269Z,4.78
2022-11-05T23:05:46.854Z,3.75
2022-11-05T23:08:37.432Z,3.78
2022-11-05T23:11:34.147Z,4.68
2022-11-05T23:14:08.826Z,3.67
2022-11-05T23:17:00.002Z,3.70
2022-11-05T23:19:52.418Z,4.47
2022-11-05T23:22:45.838Z,4.25
2022-11-05T23:25:22.282Z,3.60
2022-11-05T23:27:55.968Z,3.40
2022-11-05T23:30:29.977Z,2.97
2022-11-05T23:33:02.356Z,3.83
2022-11-05T23:38:36.584Z,4.20
2022-11-05T23:41:26.987Z,2.47
2022-11-05T23:44:17.755Z,3.25
2022-11-05T23:47:08.123Z,3.42
2022-11-05T23:49:41.711Z,2.97
2022-11-05T23:52:16.324Z,10.45
2022-11-05T23:54:49.954Z,15.18
2022-11-05T23:57:23.183Z,9.25
2022-11-05T23:59:56.447Z,27.08
